Bookmark and Share
Track history (hours):
 

Suehiro Maru No.8

Last reported at 2014-Apr-13 10:20 UTC. Time now 2014-Apr-20 00:50 UTC.
Position N 35°04' E 138°49'.

Length 88 m; draft 4.5 m.

Type: Cargo ship. MMSI: 431400446.

NotesDate/timePositionNaut miles runAvg speedWind from/ knotsBaromVisibWave heightAir tempDewpointWater temp
2014-Apr-13 10:20N 35°04' E 138°49'  
2014-Apr-08 10:33N 34°46' E 139°06'1211.4
2014-Apr-08 09:33N 34°54' E 139°16'1111.5
2014-Apr-08 08:33N 35°00' E 139°28'1212.2
2014-Apr-08 07:33N 35°07' E 139°40'1111.2
2014-Apr-08 06:34N 35°17' E 139°45'1010.3
2014-Apr-08 05:34N 35°27' E 139°47'1010.1
2014-Apr-08 04:33N 35°37' E 139°49'0 0.2
2014-Apr-08 03:33N 35°37' E 139°49'0 0.0
2014-Apr-08 02:34N 35°37' E 139°49'0 0.0
2014-Apr-08 01:34N 35°37' E 139°49'0 0.0
2014-Apr-08 00:33N 35°37' E 139°49'0 0.0
2014-Apr-07 23:34N 35°37' E 139°49'0 0.0
2014-Apr-07 22:34N 35°37' E 139°49'3 3.1
2014-Apr-07 21:34N 35°36' E 139°52'0 0.0
2014-Apr-07 20:34N 35°36' E 139°52'0 0.1
2014-Apr-07 19:33N 35°36' E 139°52'0 0.0
2014-Apr-07 17:33N 35°36' E 139°52'0 0.0
2014-Apr-07 16:33N 35°36' E 139°52'0 0.0
2014-Apr-07 15:34N 35°36' E 139°52'0 0.0
2014-Apr-07 14:34N 35°36' E 139°52'0 0.0
2014-Apr-07 13:34N 35°36' E 139°52'0 0.1
2014-Apr-07 12:34N 35°36' E 139°52'0 0.0
2014-Apr-07 11:34N 35°36' E 139°52'0 0.0
2014-Apr-07 10:33N 35°36' E 139°52'0 0.1
2014-Apr-07 09:33N 35°36' E 139°52'0 0.0
2014-Apr-07 08:34N 35°36' E 139°52'0 0.0
2014-Apr-07 07:34N 35°36' E 139°52'0 0.0
2014-Apr-07 06:34N 35°36' E 139°52'0 0.0
2014-Apr-07 05:33N 35°36' E 139°52'0 0.1
2014-Apr-07 04:33N 35°36' E 139°52'0 0.0
2014-Apr-07 03:33N 35°36' E 139°52'0 0.1
2014-Apr-07 02:34N 35°36' E 139°52'0 0.0
2014-Apr-07 01:34N 35°36' E 139°52'0 0.1
2014-Apr-07 00:34N 35°36' E 139°52'0 0.0
2014-Apr-06 23:34N 35°36' E 139°52'0 0.1
2014-Apr-06 22:33N 35°36' E 139°52'0 0.0
2014-Apr-06 21:33N 35°36' E 139°52'0 0.0
2014-Apr-06 20:33N 35°36' E 139°52'0 0.0
2014-Apr-06 19:34N 35°36' E 139°52'0 0.0
2014-Apr-06 18:33N 35°36' E 139°52'0 0.0
2014-Apr-06 17:34N 35°36' E 139°52'0 0.0
2014-Apr-06 16:33N 35°36' E 139°52'0 0.0
2014-Apr-06 15:34N 35°36' E 139°52'0 0.0
2014-Apr-06 14:34N 35°36' E 139°52'0 0.0
2014-Apr-06 13:33N 35°36' E 139°52'0 0.0
2014-Apr-06 12:34N 35°36' E 139°52'0 0.0
2014-Apr-06 11:34N 35°36' E 139°52'0 0.0
2014-Apr-06 10:34N 35°36' E 139°52'0 0.0
2014-Apr-06 09:34N 35°36' E 139°52'0 0.0
2014-Apr-06 08:34N 35°36' E 139°52'0 0.1
2014-Apr-06 07:33N 35°36' E 139°52'0 0.0
2014-Apr-06 06:33N 35°36' E 139°52'0 0.1
2014-Apr-06 05:34N 35°36' E 139°52'5 5.2
2014-Apr-06 04:33N 35°31' E 139°52'9 8.7
2014-Apr-06 03:34N 35°22' E 139°52'0 0.0
2014-Apr-06 02:34N 35°22' E 139°52'0 0.0
2014-Apr-06 01:34N 35°22' E 139°52'0 0.0
2014-Apr-06 00:33N 35°22' E 139°52'0 0.0
2014-Apr-05 23:34N 35°22' E 139°52'0 0.0
2014-Apr-05 22:33N 35°22' E 139°52'2 1.8
2014-Apr-05 21:33N 35°23' E 139°51'0 0.0
2014-Apr-05 20:33N 35°23' E 139°51'4 4.1
2014-Apr-05 19:34N 35°22' E 139°46'1110.8
2014-Apr-05 18:34N 35°12' E 139°47'1110.7
2014-Apr-05 17:33N 35°02' E 139°40'1111.1
2014-Apr-05 16:33N 34°55' E 139°30'  

Dump ship's entire track history

sailing weather and tide predictions

Suehiro Maru No.8 — JK5423 — position and weather